Weather observations for the past three days for
Ludington, Mason County Airport
Imperial (Metric)
Date Time (edt) Wind (mph) Vis. (mi.) Weather Sky Cond. Temperature (ºF) Relative Humidity Wind Chill (°F) Heat Index (°F) Pressure Precipitation (in)
Air Dwpt 6 hour altimeter (in) sea level (mb) 1 hr 3 hr 6 hr
Max. Min.
07 07:55 NW 5 10.00 A Few Clouds FEW060 37.4 35.6 40.8 28.4 93% 34 29.93 0.0
07 07:35 W 1 10.00 Fair CLR 33.8 33.8 100% 29.92 0.0
07 07:15 Calm 10.00 Fair CLR 30.2 30.2 100% 29.91 0.0
07 06:55 E 1 2.50 Fog/Mist CLR 30.2 30.2 100% 29.9 0.0
07 06:35 Calm 1.75 Fog/Mist CLR 28.4 28.4 100% 29.9 0.0
07 06:15 Calm 6.00 Fog/Mist CLR 30.2 30.2 100% 29.9 0.0
07 05:55 E 1 10.00 Fair CLR 32 32 100% 29.9 0.0
07 05:35 E 1 10.00 Fair CLR 32 32 100% 29.9 0.0
07 05:15 Calm 10.00 Fair CLR 32 30.2 93% 29.91 0.0
07 04:55 Calm 10.00 Fair CLR 32 30.2 93% 29.91 0.0
07 04:35 Calm 10.00 Fair CLR 32 30.2 93% 29.91 0.0
07 04:15 Calm 10.00 Fair CLR 32 30.2 93% 29.91 0.0
07 03:55 N 3 10.00 Fair CLR 35.6 32 87% 29.91 0.0
07 03:35 N 2 10.00 Fair CLR 35.6 32 87% 29.91 0.0
07 03:15 N 3 10.00 Fair CLR 37.4 32 81% 29.91 0.0
07 02:55 NW 3 10.00 Partly Cloudy SCT075 37.4 33.8 87% 29.92 0.0
07 02:35 NW 5 10.00 Overcast OVC075 41 33.8 76% 38 29.92 0.0
07 02:15 W 2 10.00 Overcast FEW065 OVC085 41 33.8 76% 29.92 0.0
07 01:55 NW 5 10.00 Overcast BKN065 OVC085 41 33.8 45.3 40.6 76% 38 29.93 0.0
07 01:35 NW 5 10.00 Overcast FEW070 OVC085 41 33.8 76% 38 29.93 0.0
07 01:15 NW 7 10.00 Overcast FEW070 OVC085 41 32 70% 37 29.93 0.0
07 00:55 NW 9 10.00 Overcast OVC085 42.8 32 66% 38 29.93 0.0
07 00:35 NW 6 10.00 Overcast FEW070 OVC085 44.6 30.2 57% 42 29.92 0.0
07 00:15 W 8 10.00 Overcast FEW070 OVC085 42.8 32 66% 39 29.92 0.0
06 23:55 Vrbl 3 10.00 Overcast OVC090 42.8 33.8 71% 29.93 0.0
06 23:35 W 7 10.00 Overcast OVC090 42.8 35.6 76% 39 29.93 0.0
06 23:15 SW 7 10.00 Overcast OVC090 42.8 33.8 71% 39 29.92 0.0
06 22:55 SW 5 10.00 Overcast OVC090 42.8 32 66% 41 29.92 0.0
06 22:35 SW 8 10.00 Overcast OVC090 42.8 32 66% 39 29.92 0.0
06 22:15 SW 5 10.00 Overcast OVC090 42.8 32 66% 41 29.92 0.0
06 21:55 SW 6 10.00 Overcast OVC090 42.8 32 66% 40 29.92 0.0
06 21:35 SW 8 10.00 Overcast OVC090 42.8 30.2 61% 39 29.92 0.0
06 21:15 SW 6 10.00 Overcast OVC090 44.6 30.2 57% 42 29.92 0.0
06 20:55 SW 7 10.00 Overcast OVC090 44.6 28.4 53% 41 29.91 0.0
06 20:35 SW 5 10.00 Overcast OVC090 44.6 28.4 53% 43 29.91 0.0
06 20:15 SW 8 10.00 Overcast OVC090 44.6 28.4 53% 41 29.91 0.0
06 19:55 SW 9 10.00 Mostly Cloudy BKN090 44.6 28.4 50.2 45.3 53% 40 29.9 0.0
06 19:35 SW 10 10.00 Partly Cloudy SCT090 46.4 26.6 46% 42 29.9 0.0
06 19:15 SW 9 10.00 Overcast OVC090 46.4 28.4 50% 42 29.9 0.0
06 18:55 W 5 10.00 Mostly Cloudy BKN080 46.4 28.4 50% 45 29.91 0.0
06 18:35 W 8 10.00 Partly Cloudy SCT080 48.2 28.4 46% 45 29.91 0.0
06 18:15 W 9 10.00 Overcast OVC080 46.4 28.4 50% 42 29.91 0.0
06 17:55 SW 9 10.00 Overcast OVC080 46.4 28.4 50% 42 29.91 0.0
06 17:35 SW 9 10.00 Overcast OVC070 46.4 28.4 50% 42 29.91 0.0
06 17:15 SW 13 10.00 Mostly Cloudy BKN070 48.2 28.4 46% 43 29.91 0.0
06 16:55 SW 13 10.00 Mostly Cloudy BKN070 48.2 28.4 46% 43 29.91 0.0
06 16:35 SW 13 10.00 Mostly Cloudy BKN070 48.2 30.2 50% 43 29.92 0.0
06 16:15 W 14 10.00 A Few Clouds FEW070 48.2 28.4 46% 43 29.91 0.0
06 15:55 SW 10 10.00 A Few Clouds FEW070 50 30.2 47% 46 29.92 0.0
06 15:35 SW 13 G 17 10.00 Mostly Cloudy BKN070 48.2 28.4 46% 43 29.92 0.0
06 15:15 W 10 G 17 10.00 Overcast OVC070 48.2 28.4 46% 44 29.91 0.0
06 14:55 W 9 10.00 Overcast OVC070 50 28.4 43% 47 29.91 0.0
06 14:35 W 10 G 16 10.00 Overcast OVC070 48.2 28.4 46% 44 29.92 0.0
06 14:15 SW 10 10.00 Partly Cloudy SCT065 48.2 28.4 46% 44 29.92 0.0
06 13:55 W 9 10.00 Fair CLR 48.2 28.4 49.8 34.5 46% 45 29.92 0.0
06 13:35 SW 8 10.00 Partly Cloudy SCT070 48.2 28.4 46% 45 29.92 0.0
06 13:15 SW 10 10.00 Mostly Cloudy BKN070 48.2 30.2 50% 44 29.93 0.0
06 12:55 W 7 10.00 Mostly Cloudy BKN070 48.2 28.4 46% 46 29.93 0.0
06 12:35 SW 10 10.00 Overcast OVC070 50 28.4 43% 46 29.93 0.0
06 12:15 SW 7 10.00 Overcast OVC070 48.2 26.6 43% 46 29.93 0.0
06 11:55 W 7 10.00 Overcast OVC070 48.2 26.6 43% 46 29.93 0.0
06 11:35 Vrbl 6 10.00 Overcast OVC070 48.2 24.8 40% 46 29.93 0.0
06 11:15 Vrbl 3 10.00 Overcast OVC070 48.2 26.6 43% 29.92 0.0
06 10:55 SE 5 10.00 Overcast OVC070 46.4 24.8 43% 45 29.92 0.0
06 10:35 Vrbl 2 10.00 Mostly Cloudy BKN070 44.6 24.8 46% 29.92 0.0
06 10:15 S 6 10.00 Fair CLR 44.6 24.8 46% 42 29.92 0.0
06 09:55 E 8 10.00 Fair CLR 44.6 26.6 49% 41 29.91 0.0
06 09:35 E 7 10.00 Partly Cloudy SCT070 44.6 26.6 49% 41 29.91 0.0
06 09:15 E 8 10.00 Overcast OVC070 42.8 26.6 53% 39 29.9 0.0
06 08:55 E 9 10.00 Partly Cloudy SCT070 42.8 26.6 53% 38 29.9 0.0
06 08:35 E 7 10.00 Fair CLR 41 30.2 66% 37 29.91 0.0
06 08:15 E 5 10.00 Fair CLR 39.2 32 75% 36 29.9 0.0
06 07:55 E 3 10.00 Fair CLR 35.6 32 38.7 28.9 87% 29.89 0.0
06 07:35 E 2 10.00 Fair CLR 32 30.2 93% 29.89 0.0
06 07:15 NE 1 10.00 A Few Clouds FEW075 32 30.2 93% 29.88 0.0
06 06:55 Calm 10.00 Overcast OVC075 32 30.2 93% 29.87 0.0
06 06:35 NE 2 10.00 Mostly Cloudy BKN075 32 30.2 93% 29.87 0.0
06 06:15 N 3 10.00 Fair CLR 30.2 28.4 93% 29.87 0.0
06 05:55 E 2 10.00 Fair CLR 32 30.2 93% 29.86 0.0
06 05:35 SE 1 10.00 Fair CLR 32 30.2 93% 29.86 0.0
06 05:15 E 1 10.00 Fair CLR 33.8 30.2 87% 29.85 0.0
06 04:55 NE 3 10.00 Fair CLR 35.6 30.2 81% 29.85 0.0
06 04:35 NE 6 10.00 Fair CLR 33.8 30.2 87% 29 29.85 0.0
06 04:15 NE 5 10.00 Fair CLR 35.6 32 87% 32 29.84 0.0
06 03:55 N 3 10.00 Fair CLR 35.6 32 87% 29.85 0.0
06 03:35 N 3 10.00 Fair CLR 35.6 33.8 93% 29.85 0.0
06 03:15 N 2 10.00 Partly Cloudy SCT070 37.4 33.8 87% 29.85 0.0
06 02:55 N 3 10.00 Partly Cloudy SCT070 37.4 33.8 87% 29.84 0.0
06 02:35 N 6 10.00 A Few Clouds FEW070 35.6 32 87% 31 29.84 0.0
06 02:15 N 3 10.00 Fair CLR 37.4 33.8 87% 29.85 0.0
06 01:55 NW 2 10.00 Fair CLR 37.4 32 46.9 38.3 81% 29.85 0.0
06 01:35 NW 2 10.00 Partly Cloudy SCT080 39.2 32 75% 29.84 0.0
06 01:15 NW 3 10.00 Mostly Cloudy BKN080 39.2 32 75% 29.84 0.0
06 00:55 NW 3 10.00 Mostly Cloudy BKN080 41 30.2 66% 29.83 0.0
06 00:35 NW 5 10.00 Mostly Cloudy BKN080 42.8 28.4 57% 41 29.82 0.0
06 00:15 NW 7 10.00 Overcast OVC080 44.6 26.6 49% 41 29.82 0.0
05 23:55 NW 12 10.00 Overcast OVC080 44.6 26.6 49% 39 29.82 0.0
05 23:35 NW 8 10.00 Mostly Cloudy BKN080 44.6 24.8 46% 41 29.82 0.0
05 23:15 NW 7 10.00 Fair CLR 44.6 24.8 46% 41 29.82 0.0
05 22:55 NW 6 10.00 A Few Clouds FEW075 44.6 23 43% 42 29.82 0.0
05 22:35 NW 7 10.00 A Few Clouds FEW075 44.6 23 43% 41 29.81 0.0
05 22:15 NW 7 10.00 Partly Cloudy SCT075 44.6 24.8 46% 41 29.81 0.0
05 21:55 N 6 10.00 Fair CLR 44.6 26.6 49% 42 29.8 0.0
05 21:35 NW 6 10.00 Fair CLR 44.6 28.4 53% 42 29.8 0.0
05 21:15 NW 6 10.00 Fair CLR 44.6 30.2 57% 42 29.79 0.0
05 20:55 W 2 10.00 Fair CLR 44.6 33.8 66% 29.79 0.0
05 20:35 W 5 10.00 Fair CLR 44.6 33.8 66% 43 29.79 0.0
05 20:15 SW 8 10.00 Fair CLR 44.6 33.8 66% 41 29.79 0.0
05 19:55 W 7 10.00 Fair CLR 46.4 32 53.1 46.8 57% 43 29.79 0.0
05 19:35 SW 8 10.00 Fair CLR 46.4 33.8 62% 43 29.78 0.0
05 19:15 SW 7 10.00 Fair CLR 46.4 32 57% 43 29.78 0.0
05 18:55 SW 10 10.00 Fair CLR 46.4 32 57% 42 29.78 0.0
05 18:35 SW 12 10.00 Fair CLR 48.2 32 54% 44 29.78 0.0
05 18:15 SW 13 10.00 Fair CLR 50 32 50% 46 29.77 0.0
05 17:55 SW 9 10.00 Fair CLR 51.8 32 47% 29.77 0.0
05 17:35 SW 13 10.00 Fair CLR 51.8 33.8 50% 29.77 0.0
05 17:15 SW 12 10.00 Fair CLR 51.8 32 47% 29.77 0.0
05 16:55 SW 12 10.00 Fair CLR 51.8 30.2 44% 29.77 0.0
05 16:35 SW 10 10.00 Fair CLR 51.8 30.2 44% 29.77 0.0
05 16:15 SW 13 10.00 Fair CLR 51.8 30.2 44% 29.77 0.0
05 15:55 SW 12 10.00 Fair CLR 51.8 32 47% 29.77 0.0
05 15:35 SW 12 10.00 Fair CLR 51.8 30.2 44% 29.76 0.0
05 15:15 SW 14 10.00 Fair CLR 51.8 30.2 44% 29.76 0.0
05 14:55 SW 9 G 17 10.00 Fair CLR 51.8 30.2 44% 29.76 0.0
05 14:35 SW 12 G 17 10.00 Fair CLR 51.8 28.4 41% 29.76 0.0
05 14:15 W 12 G 17 10.00 Fair CLR 51.8 28.4 41% 29.76 0.0
05 13:55 SW 9 10.00 Fair CLR 51.8 30.2 52.3 44.4 44% 29.75 0.0
05 13:35 SW 9 10.00 Fair CLR 50 28.4 43% 47 29.75 0.0
05 13:15 SW 8 10.00 Fair CLR 50 28.4 43% 47 29.75 0.0
05 12:55 SW 7 10.00 Fair CLR 50 26.6 40% 48 29.75 0.0
05 12:35 W 8 10.00 Fair CLR 51.8 26.6 38% 29.75 0.0
05 12:15 W 9 10.00 Fair CLR 50 28.4 43% 47 29.75 0.0
05 11:55 W 10 10.00 Fair CLR 50 28.4 43% 46 29.75 0.0
05 11:35 W 7 10.00 Fair CLR 50 28.4 43% 48 29.75 0.0
05 11:15 W 8 10.00 Fair CLR 48.2 26.6 43% 45 29.76 0.0
05 10:55 W 8 10.00 Fair CLR 48.2 26.6 43% 45 29.75 0.0
05 10:35 NW 12 G 17 10.00 Fair CLR 48.2 26.6 43% 44 29.75 0.0
05 10:15 W 10 10.00 Fair CLR 48.2 28.4 46% 44 29.74 0.0
05 09:55 W 10 G 18 10.00 Fair CLR 46.4 24.8 43% 42 29.74 0.0
05 09:35 W 13 G 20 10.00 Fair CLR 48.2 28.4 46% 43 29.74 0.0
05 09:15 NW 10 10.00 Fair CLR 48.2 26.6 43% 44 29.74 0.0
05 08:55 W 14 G 18 10.00 A Few Clouds FEW050 48.2 26.6 43% 43 29.72 0.0
05 08:35 NW 9 10.00 Mostly Cloudy BKN050 46.4 28.4 50% 42 29.71 0.0
05 08:15 NW 9 10.00 Overcast OVC050 44.6 28.4 53% 40 29.7 0.0
05 07:55 NW 7 10.00 Overcast OVC060 44.6 28.4 47.3 39.9 53% 41 29.7 0.0
05 07:35 Vrbl 7 10.00 Mostly Cloudy BKN060 44.6 30.2 57% 41 29.7 0.0
05 07:15 NW 8 10.00 Mostly Cloudy BKN060 42.8 32 66% 39 29.68 0.0
05 06:55 NW 3 10.00 A Few Clouds FEW060 42.8 35.6 76% 29.67 0.0
05 06:35 W 7 10.00 Mostly Cloudy BKN060 42.8 33.8 71% 39 29.67 0.0
05 06:15 W 5 10.00 Mostly Cloudy BKN050 BKN060 41 33.8 76% 38 29.67 0.0
05 05:55 NW 2 10.00 A Few Clouds FEW060 42.8 33.8 71% 29.66 0.0
05 05:35 NW 3 10.00 Partly Cloudy SCT060 41 33.8 76% 29.64 0.0
05 05:15 N 5 10.00 A Few Clouds FEW060 42.8 35.6 76% 41 29.62 0.0
05 04:55 N 2 10.00 Fair CLR 41 37.4 87% 29.61 0.0
05 04:35 NW 1 10.00 Fair CLR 41 37.4 87% 29.6 0.0
05 04:15 NW 2 10.00 Fair CLR 41 37.4 87% 29.59 0.0
05 03:55 N 2 10.00 A Few Clouds FEW070 44.6 37.4 76% 29.58 0.0
05 03:35 Vrbl 2 10.00 Fair CLR 46.4 37.4 71% 29.57 0.0
05 03:15 N 6 10.00 Fair CLR 46.4 37.4 71% 44 29.57 0.0
05 02:55 N 6 10.00 Fair CLR 46.4 37.4 71% 44 29.56 0.0
05 02:35 N 6 10.00 Fair CLR 46.4 37.4 71% 44 29.56 0.0
05 02:15 N 8 10.00 Fair CLR 44.6 37.4 76% 41 29.54 0.0
05 01:55 NW 8 10.00 Fair CLR 44.6 37.4 66.6 45.1 76% 41 29.52 0.0
05 01:35 NW 7 10.00 A Few Clouds FEW120 46.4 37.4 71% 43 29.51 0.0
05 01:15 NW 8 10.00 Fair CLR 48.2 35.6 62% 45 29.51 0.0
05 00:55 W 9 10.00 A Few Clouds FEW120 50 35.6 58% 47 29.51 0.0
05 00:35 W 13 G 17 10.00 Mostly Cloudy BKN110 55.4 33.8 44% 29.5 0.0
05 00:15 NW 8 10.00 Overcast BKN100 OVC120 55.4 35.6 47% 29.48 0.0
04 23:55 Vrbl 5 10.00 Overcast OVC110 51.8 39.2 62% 29.47 0.0
04 23:35 SW 6 10.00 Mostly Cloudy BKN120 53.6 41 63% 29.47 0.0
04 23:15 W 5 10.00 Mostly Cloudy BKN120 53.6 41 63% 29.47 0.0
04 22:55 W 7 10.00 Partly Cloudy SCT120 53.6 41 63% 29.47 0.0
04 22:35 SW 10 10.00 Mostly Cloudy BKN120 55.4 42.8 63% 29.46 0.0
04 22:15 SW 7 10.00 Overcast OVC120 55.4 42.8 63% 29.44 0.0
04 21:55 SW 5 10.00 Mostly Cloudy BKN120 53.6 44.6 72% 29.44 0.0
04 21:35 W 2 10.00 A Few Clouds FEW120 53.6 42.8 67% 29.42 0.0
04 21:15 SW 3 10.00 Partly Cloudy FEW100 SCT120 53.6 42.8 67% 29.42 0.0
04 20:55 SW 12 G 16 10.00 Partly Cloudy SCT100 55.4 44.6 67% 29.43 0.0
04 20:35 SW 3 10.00 Fair CLR 57.2 44.6 63% 29.39 0.0
04 20:15 SW 17 G 32 10.00 Light Rain FEW075 SCT090 BKN120 59 48.2 68% 29.41 0.0
04 19:55 SW 22 G 32 10.00 Mostly Cloudy and Breezy FEW080 BKN090 BKN120 66.2 44.6 70.9 61 46% 29.38 0.0
04 19:35 SW 20 G 30 10.00 Light Rain FEW080 OVC090 66.2 41 40% 29.39 0.0
04 19:15 SW 20 G 30 10.00 Mostly Cloudy SCT100 BKN110 68 39.2 35% 29.38 0.0
04 18:55 S 21 G 28 10.00 A Few Clouds and Breezy FEW110 69.8 39.2 33% 29.37 0.0
04 18:35 S 21 G 30 10.00 Partly Cloudy and Breezy SCT110 69.8 39.2 33% 29.38 0.0
04 18:15 S 21 G 31 10.00 Mostly Cloudy and Breezy BKN100 BKN120 69.8 39.2 33% 29.38 0.0
04 17:55 S 20 G 26 10.00 Mostly Cloudy BKN100 69.8 39.2 33% 29.39 0.0
04 17:35 S 21 G 33 10.00 Fair and Breezy CLR 69.8 39.2 33% 29.39 0.0
04 17:15 S 23 G 32 10.00 Fair and Breezy CLR 69.8 41 35% 29.4 0.0
04 16:55 S 28 G 36 10.00 Fair and Windy CLR 68 41 38% 29.4 0.0
04 16:35 S 25 G 32 10.00 A Few Clouds and Breezy FEW120 68 39.2 35% 29.41 0.0
04 16:15 S 25 G 39 10.00 Fair and Breezy CLR 68 39.2 35% 29.42 0.0
04 15:55 S 25 G 37 10.00 Fair and Breezy CLR 68 39.2 35% 29.42 0.0
04 15:35 S 26 G 33 10.00 Fair and Windy CLR 69.8 39.2 33% 29.42 0.0
04 15:15 S 24 G 36 10.00 Fair and Breezy CLR 69.8 39.2 33% 29.44 0.0
04 14:55 S 25 G 38 10.00 Fair and Breezy CLR 69.8 37.4 31% 29.44 0.0
04 14:35 S 29 G 35 10.00 Fair and Windy CLR 69.8 37.4 31% 29.43 0.0
04 14:15 S 25 G 35 10.00 Fair and Breezy CLR 69.8 37.4 31% 29.44 0.0
04 13:55 SW 24 G 30 10.00 Fair and Breezy CLR 69.8 37.4 69.3 48.6 31% 29.45 0.0
04 13:35 SW 21 G 29 10.00 Fair and Breezy CLR 68 37.4 33% 29.45 0.0
04 13:15 SW 25 G 33 10.00 Fair and Breezy CLR 68 37.4 33% 29.45 0.0
04 12:55 SW 26 G 33 10.00 Fair and Windy CLR 66.2 37.4 35% 29.46 0.0
04 12:35 SW 23 G 32 10.00 Fair and Breezy CLR 62.6 39.2 42% 29.48 0.0
04 12:15 SW 22 G 30 10.00 Fair and Breezy CLR 62.6 37.4 39% 29.49 0.0
04 11:55 SW 22 G 33 10.00 Fair and Breezy CLR 62.6 37.4 39% 29.49 0.0
04 11:35 SW 23 G 30 10.00 Fair and Breezy CLR 64.4 35.6 34% 29.49 0.0
04 11:15 SW 21 G 29 10.00 Fair and Breezy CLR 64.4 35.6 34% 29.5 0.0
04 10:55 SW 22 G 30 10.00 Fair and Breezy CLR 64.4 37.4 37% 29.51 0.0
04 10:35 S 22 G 28 10.00 Fair and Breezy CLR 62.6 37.4 39% 29.51 0.0
04 10:15 S 15 G 26 10.00 Fair CLR 60.8 39.2 45% 29.52 0.0
04 09:55 S 14 G 23 10.00 Fair CLR 60.8 39.2 45% 29.52 0.0
04 09:35 S 17 G 25 10.00 Fair CLR 59 39.2 48% 29.54 0.0
04 09:15 S 18 10.00 Fair CLR 57.2 39.2 51% 29.54 0.0
04 08:55 S 13 10.00 Fair CLR 57.2 39.2 51% 29.54 0.0
04 08:35 S 9 10.00 Fair CLR 55.4 41 59% 29.55 0.0
04 08:15 S 5 10.00 Fair CLR 51.8 41 67% 29.54 0.0
Date Time (edt) Wind (mph) Vis. (mi.) Weather Sky Cond. Air Dwpt Max. Min. Relative Humidity Wind Chill (°F) Heat Index (°F) altimeter (in) sea level (mb) 1 hr 3 hr 6 hr
6 hour
Temperature (ºF) Pressure Precipitation (in)